Viborg, South Dakota
Current Conditions -  °F | °C
As of 7:15 PM on Sunday 23 Nov 2014 (Local Time) from KYKN Reporting Station
Overcast Overcast  
Wind Chill: 25°   Ceiling: 4000
Heat Index: 36°   Visibility: 10mi
Dew Point: 21°   Wind: 18mph
Humidity: 56%   Direction: 320°NW
Pressure: 29.6"   Gusts: 26mph
Location:  43.17°N, 97.08°W
Report Text: KYKN 240115Z AUTO 32016G23KT 10SM OVC040 02/M06 A2960 RMK AO1
Loading
Personal Weather Stations






























Interactive Weather Map New forecast layout! Learn more

10-Day Weather Forecast

Advertisements
Track Severe Weather on mobile